Station History

Weather Underground - logo

Station Historical Data
Daily Summary for March 8, 2018 Units:  Metric    English   Both
« Previous Day
Next Day »
Daily Weekly Monthly Yearly Custom
  High: Low: Average:
Temperature: 23.3 °C 4.9 °C 13.8 °C
Dew Point: 9.8 °C 2.9 °C 5.2 °C
Humidity: 90 % 31 % 62 %
Wind Speed: 11.1 km/h 0 km/h 2.1 km/h
Wind Gust: 11.1 km/h - -
Wind:- - SW
Pressure: 1020.9 hPa 1016.1 hPa -
Precipitation: 0 mm    
Historical Graphs
 
 
Tabular Data for March 8, 2018
Time Temperature Dew Point Pressure Wind Wind Speed Wind Gust Humidity Rainfall Rate (Hourly)
00:01 7.6 °C 5.4 °C 1018.2 hPa Calm     86 % 0 mm
00:06 7.7 °C 5.7 °C 1018.2 hPa Calm     87 % 0 mm
00:11 7.7 °C 5.5 °C 1018.2 hPa Calm     86 % 0 mm
00:16 7.4 °C 5.1 °C 1018.2 hPa Calm     85 % 0 mm
00:21 7.3 °C 5.3 °C 1018.2 hPa Calm     87 % 0 mm
00:27 7.5 °C 5.5 °C 1018.5 hPa Calm     87 % 0 mm
00:32 7.6 °C 5.6 °C 1018.5 hPa Calm     87 % 0 mm
00:37 7.8 °C 5.6 °C 1018.5 hPa Calm     86 % 0 mm
00:42 7.7 °C 5.3 °C 1018.5 hPa Calm     85 % 0 mm
00:47 7.4 °C 4.8 °C 1018.5 hPa Calm     84 % 0 mm
00:52 7.2 °C 4.9 °C 1018.5 hPa Calm     85 % 0 mm
00:57 7 °C 4.8 °C 1018.5 hPa Calm     86 % 0 mm
01:02 6.9 °C 4.9 °C 1018.8 hPa Calm     87 % 0 mm
01:07 7.1 °C 5.1 °C 1018.8 hPa WNW 1.6 km/h 1.6 km/h 87 % 0 mm
01:12 7.4 °C 5.2 °C 1018.8 hPa Calm     86 % 0 mm
01:17 7.5 °C 5.2 °C 1018.8 hPa Calm     85 % 0 mm
01:22 7.6 °C 5 °C 1018.8 hPa Calm     84 % 0 mm
01:27 7.5 °C 4.9 °C 1018.8 hPa Calm     84 % 0 mm
01:32 7.4 °C 5.1 °C 1018.8 hPa Calm     85 % 0 mm
01:37 7.2 °C 4.7 °C 1018.8 hPa Calm     84 % 0 mm
01:42 7 °C 4.7 °C 1018.5 hPa Calm     85 % 0 mm
01:47 6.8 °C 4.5 °C 1018.5 hPa Calm     85 % 0 mm
01:52 6.5 °C 4.2 °C 1018.5 hPa Calm     85 % 0 mm
01:57 6.2 °C 3.9 °C 1018.5 hPa Calm     85 % 0 mm
02:02 5.8 °C 3.5 °C 1018.5 hPa Calm     85 % 0 mm
02:07 5.6 °C 3.4 °C 1018.8 hPa Calm     86 % 0 mm
02:12 5.6 °C 3.8 °C 1018.8 hPa Calm     88 % 0 mm
02:17 5.6 °C 3.7 °C 1018.8 hPa SE 1.9 km/h   88 % 0 mm
02:22 5.4 °C 3.4 °C 1018.8 hPa Calm     87 % 0 mm
02:27 5.4 °C 3.6 °C 1018.8 hPa Calm     88 % 0 mm
02:32 5.5 °C 3.8 °C 1018.5 hPa Calm     89 % 0 mm
02:37 5.7 °C 4 °C 1018.5 hPa Calm     89 % 0 mm
02:42 5.9 °C 4.1 °C 1018.5 hPa Calm     88 % 0 mm
02:47 6.1 °C 4.2 °C 1018.5 hPa Calm     88 % 0 mm
02:52 6.2 °C 4.2 °C 1018.5 hPa Calm     87 % 0 mm
02:57 6.1 °C 3.9 °C 1018.2 hPa Calm     86 % 0 mm
03:02 6 °C 4 °C 1018.5 hPa Calm     87 % 0 mm
03:07 5.7 °C 3.5 °C 1018.5 hPa Calm     86 % 0 mm
03:12 5.4 °C 3.4 °C 1018.5 hPa Calm     87 % 0 mm
03:17 5.3 °C 3.4 °C 1018.5 hPa Calm     88 % 0 mm
03:22 5.2 °C 3.3 °C 1018.5 hPa Calm     88 % 0 mm
03:27 5.1 °C 3.4 °C 1018.5 hPa Calm     89 % 0 mm
03:32 5.1 °C 3.4 °C 1018.5 hPa Calm     89 % 0 mm
03:37 5.1 °C 3.4 °C 1018.5 hPa Calm     89 % 0 mm
03:42 4.9 °C 3.3 °C 1018.5 hPa Calm     89 % 0 mm
03:47 4.9 °C 3.4 °C 1018.8 hPa Calm     90 % 0 mm
03:52 4.9 °C 3.3 °C 1018.8 hPa Calm     89 % 0 mm
03:57 4.9 °C 3.2 °C 1018.8 hPa Calm     89 % 0 mm
04:02 4.9 °C 3.2 °C 1018.8 hPa Calm     89 % 0 mm
04:08 5.1 °C 3.4 °C 1018.8 hPa Calm     89 % 0 mm
04:13 5.3 °C 3.5 °C 1018.8 hPa Calm     88 % 0 mm
04:18 5.6 °C 3.6 °C 1018.8 hPa Calm     87 % 0 mm
04:23 5.7 °C 3.6 °C 1018.8 hPa Calm     86 % 0 mm
04:28 5.9 °C 3.6 °C 1018.8 hPa Calm     85 % 0 mm
04:33 6.1 °C 3.6 °C 1018.8 hPa ESE 1.9 km/h   84 % 0 mm
04:38 6.2 °C 3.7 °C 1019.2 hPa ESE 1.9 km/h   84 % 0 mm
04:43 6.2 °C 3.6 °C 1019.2 hPa ESE 1.9 km/h   83 % 0 mm
04:48 6.2 °C 3.6 °C 1019.2 hPa Calm     83 % 0 mm
04:53 6.2 °C 3.6 °C 1019.2 hPa Calm     83 % 0 mm
04:58 6.2 °C 3.5 °C 1019.2 hPa Calm     83 % 0 mm
05:03 6.1 °C 3.4 °C 1019.2 hPa Calm     83 % 0 mm
05:08 5.8 °C 3.3 °C 1019.2 hPa Calm     84 % 0 mm
05:13 5.7 °C 3.2 °C 1019.2 hPa Calm     84 % 0 mm
05:18 5.6 °C 3.3 °C 1019.2 hPa Calm     85 % 0 mm
05:23 5.4 °C 3.3 °C 1019.2 hPa Calm     86 % 0 mm
05:28 5.4 °C 3.3 °C 1019.2 hPa Calm     86 % 0 mm
05:33 5.7 °C 3.2 °C 1019.2 hPa Calm     84 % 0 mm
05:38 6.2 °C 3.5 °C 1019.2 hPa Calm     83 % 0 mm
05:43 6.2 °C 3.5 °C 1019.2 hPa Calm     83 % 0 mm
05:48 6.1 °C 3.3 °C 1019.2 hPa Calm     82 % 0 mm
05:53 6.1 °C 3.2 °C 1019.5 hPa Calm     82 % 0 mm
05:58 5.9 °C 3.4 °C 1019.5 hPa Calm     84 % 0 mm
06:03 5.8 °C 3.3 °C 1019.5 hPa Calm     84 % 0 mm
06:08 5.7 °C 3.2 °C 1019.5 hPa Calm     84 % 0 mm
06:13 5.6 °C 3.1 °C 1019.5 hPa Calm     84 % 0 mm
06:18 5.4 °C 3.1 °C 1019.5 hPa Calm     85 % 0 mm
06:23 5.1 °C 2.9 °C 1019.5 hPa Calm   0.2 km/h 86 % 0 mm
06:28 5.1 °C 2.9 °C 1019.5 hPa Calm     86 % 0 mm
06:33 4.9 °C 2.9 °C 1019.5 hPa Calm     87 % 0 mm
06:38 5.1 °C 3.1 °C 1019.9 hPa Calm     87 % 0 mm
06:43 5.3 °C 3.1 °C 1019.9 hPa Calm     86 % 0 mm
06:48 5.3 °C 3.1 °C 1019.9 hPa Calm     86 % 0 mm
06:53 5.4 °C 3.2 °C 1019.9 hPa Calm     86 % 0 mm
06:58 5.6 °C 3.4 °C 1019.9 hPa Calm     86 % 0 mm
07:03 5.7 °C 3.5 °C 1019.9 hPa Calm     86 % 0 mm
07:08 6.1 °C 3.8 °C 1019.9 hPa ESE 1.9 km/h   85 % 0 mm
07:13 6.6 °C 4.1 °C 1019.9 hPa Calm     84 % 0 mm
07:18 7 °C 3.9 °C 1019.9 hPa Calm     81 % 0 mm
07:24 7.3 °C 4.1 °C 1020.2 hPa Calm     80 % 0 mm
07:29 7.7 °C 4.1 °C 1020.2 hPa Calm     78 % 0 mm
07:34 8.2 °C 4.4 °C 1020.2 hPa Calm     77 % 0 mm
07:39 8.7 °C 4.3 °C 1020.5 hPa Calm     74 % 0 mm
07:44 8.9 °C 4.9 °C 1020.5 hPa Calm     76 % 0 mm
07:49 9.2 °C 5.2 °C 1020.5 hPa Calm     76 % 0 mm
07:54 9.7 °C 5.4 °C 1020.5 hPa Calm     75 % 0 mm
07:59 10.1 °C 5.4 °C 1020.9 hPa Calm     73 % 0 mm
08:04 10.6 °C 5.7 °C 1020.9 hPa Calm     72 % 0 mm
08:09 11.2 °C 5.7 °C 1020.5 hPa Calm     69 % 0 mm
08:14 12.1 °C 5.4 °C 1020.9 hPa Calm     64 % 0 mm
08:19 12.5 °C 5.7 °C 1020.9 hPa Calm     63 % 0 mm
08:24 13.3 °C 5.4 °C 1020.9 hPa Calm     59 % 0 mm
08:29 13.9 °C 5.8 °C 1020.5 hPa Calm     58 % 0 mm
08:34 14.5 °C 3.9 °C 1020.9 hPa ESE 1.9 km/h 1.9 km/h 49 % 0 mm
08:39 14.8 °C 4.2 °C 1020.9 hPa SE 1.9 km/h   49 % 0 mm
08:44 15.3 °C 5.2 °C 1020.9 hPa Calm     51 % 0 mm
08:49 15.6 °C 5.4 °C 1020.9 hPa ESE 1.9 km/h   51 % 0 mm
08:54 16 °C 4.7 °C 1020.9 hPa SE 1.6 km/h 1.6 km/h 47 % 0 mm
08:59 16.3 °C 5.3 °C 1020.9 hPa Calm     48 % 0 mm
09:04 16.6 °C 4.9 °C 1020.9 hPa SE 3.7 km/h 3.7 km/h 46 % 0 mm
09:09 16.8 °C 5.4 °C 1020.9 hPa SSW 1.9 km/h 1.9 km/h 47 % 0 mm
09:14 17.2 °C 4.8 °C 1020.9 hPa SSE 1.9 km/h 1.9 km/h 44 % 0 mm
09:19 17.6 °C 4.9 °C 1020.9 hPa SSE 3.2 km/h 3.2 km/h 43 % 0 mm
09:24 17.7 °C 4.9 °C 1020.5 hPa Calm     43 % 0 mm
09:29 17.7 °C 4.6 °C 1020.5 hPa ESE 1.9 km/h 1.9 km/h 42 % 0 mm
09:34 17.7 °C 4.2 °C 1020.5 hPa ESE 3.7 km/h 3.7 km/h 41 % 0 mm
09:39 17.8 °C 4 °C 1020.5 hPa NE 11.1 km/h 11.1 km/h 40 % 0 mm
09:44 17.8 °C 4.4 °C 1020.5 hPa SE 1.9 km/h 1.9 km/h 41 % 0 mm
09:49 18.1 °C 3.9 °C 1020.5 hPa South 7.4 km/h 7.4 km/h 39 % 0 mm
09:54 18.3 °C 4.4 °C 1020.2 hPa SE 6.4 km/h 6.4 km/h 40 % 0 mm
09:59 18.4 °C 4.6 °C 1020.2 hPa NE 1.9 km/h 1.9 km/h 40 % 0 mm
10:04 18.6 °C 3.6 °C 1020.2 hPa East 5.6 km/h 5.6 km/h 37 % 0 mm
10:09 18.7 °C 3.7 °C 1020.2 hPa SSE 6.4 km/h 6.4 km/h 37 % 0 mm
10:14 18.9 °C 3.6 °C 1020.2 hPa SE 5.6 km/h 5.6 km/h 36 % 0 mm
10:19 19.1 °C 3.2 °C 1019.9 hPa ESE 5.6 km/h 5.6 km/h 35 % 0 mm
10:24 19.3 °C 3.8 °C 1019.9 hPa SE 5.6 km/h 5.6 km/h 36 % 0 mm
10:29 19.5 °C 4.4 °C 1019.9 hPa SE 5.6 km/h 5.6 km/h 37 % 0 mm
10:34 19.9 °C 4 °C 1019.9 hPa Calm   0.3 km/h 35 % 0 mm
10:39 20.3 °C 4.3 °C 1019.9 hPa SE 7.4 km/h 7.4 km/h 35 % 0 mm
10:44 20.4 °C 4.1 °C 1019.9 hPa SE 9.7 km/h 9.7 km/h 34 % 0 mm
10:50 20.5 °C 4.9 °C 1019.9 hPa SSE 6.4 km/h 6.4 km/h 36 % 0 mm
10:55 20.6 °C 4.2 °C 1019.9 hPa SE 5.6 km/h 5.6 km/h 34 % 0 mm
11:00 20.8 °C 4.8 °C 1019.5 hPa SSW 11.1 km/h 11.1 km/h 35 % 0 mm
11:05 20.9 °C 5.3 °C 1019.5 hPa SE 5.6 km/h 5.6 km/h 36 % 0 mm
11:10 21.1 °C 5.1 °C 1019.5 hPa SSE 5.6 km/h 5.6 km/h 35 % 0 mm
11:15 21.4 °C 5.7 °C 1019.5 hPa South 5.6 km/h 5.6 km/h 36 % 0 mm
11:20 21.5 °C 5.8 °C 1019.5 hPa East 5.6 km/h 5.6 km/h 36 % 0 mm
11:25 21.5 °C 6.6 °C 1019.5 hPa South 5.6 km/h 5.6 km/h 38 % 0 mm
11:30 21.6 °C 7 °C 1019.5 hPa NNW 5.6 km/h 5.6 km/h 39 % 0 mm
11:35 21.6 °C 7.1 °C 1019.5 hPa West 5.6 km/h 5.6 km/h 39 % 0 mm
11:40 21.6 °C 7 °C 1019.2 hPa SW 3.7 km/h 3.7 km/h 39 % 0 mm
11:45 21.3 °C 6.8 °C 1019.2 hPa NNW 6.4 km/h 6.4 km/h 39 % 0 mm
11:50 21.2 °C 7 °C 1019.2 hPa NNW 3.7 km/h 3.7 km/h 40 % 0 mm
11:55 21.3 °C 6.8 °C 1019.2 hPa NNW 3.7 km/h 3.7 km/h 39 % 0 mm
12:00 21.2 °C 7.4 °C 1019.2 hPa NW 9.3 km/h 9.3 km/h 41 % 0 mm
12:05 21.2 °C 7.7 °C 1018.8 hPa SSW 3.7 km/h 3.7 km/h 42 % 0 mm
12:10 21.3 °C 8.2 °C 1018.8 hPa South 3.7 km/h 3.7 km/h 43 % 0 mm
12:15 21.3 °C 8.2 °C 1018.8 hPa NNW 3.7 km/h 3.7 km/h 43 % 0 mm
12:20 21.5 °C 9.1 °C 1018.8 hPa SSE 1.9 km/h 1.9 km/h 45 % 0 mm
12:25 21.8 °C 9.1 °C 1018.8 hPa NW 5.6 km/h 5.6 km/h 44 % 0 mm
12:30 21.6 °C 9.2 °C 1018.8 hPa SSW 5.6 km/h 5.6 km/h 45 % 0 mm
12:35 21.7 °C 8.9 °C 1018.8 hPa SSE 5.6 km/h 5.6 km/h 44 % 0 mm
12:40 21.7 °C 8.9 °C 1018.8 hPa North 5.6 km/h 5.6 km/h 44 % 0 mm
12:45 21.9 °C 8.7 °C 1018.8 hPa NW 4.8 km/h 4.8 km/h 43 % 0 mm
12:50 22 °C 9.8 °C 1018.5 hPa SE 7.4 km/h 7.4 km/h 46 % 0 mm
12:55 22.2 °C 9.3 °C 1018.5 hPa ENE 5.6 km/h 5.6 km/h 44 % 0 mm
13:00 22.3 °C 8.8 °C 1018.5 hPa WNW 3.7 km/h 3.7 km/h 42 % 0 mm
13:05 22.2 °C 9.1 °C 1018.5 hPa NNW 3.7 km/h 3.7 km/h 43 % 0 mm
13:10 22.4 °C 9.2 °C 1018.2 hPa SSE 3.2 km/h 3.2 km/h 43 % 0 mm
13:15 22.5 °C 8.6 °C 1018.2 hPa SW 5.6 km/h 5.6 km/h 41 % 0 mm
13:20 22.6 °C 8.6 °C 1018.2 hPa WNW 5.6 km/h 5.6 km/h 41 % 0 mm
13:25 22.1 °C 7.9 °C 1017.8 hPa NNW 1.9 km/h   40 % 0 mm
13:30 21.9 °C 8.1 °C 1017.8 hPa NNW 1.6 km/h 1.6 km/h 41 % 0 mm
13:35 22.1 °C 8.2 °C 1017.8 hPa NNW 3.7 km/h 3.7 km/h 41 % 0 mm
13:40 22 °C 8.1 °C 1017.8 hPa NW 3.2 km/h 3.2 km/h 41 % 0 mm
13:45 22.2 °C 8.3 °C 1017.8 hPa NNW 3.7 km/h   41 % 0 mm
13:50 22.7 °C 7.6 °C 1017.5 hPa ESE 3.7 km/h 3.7 km/h 38 % 0 mm
13:55 22.8 °C 8.1 °C 1017.5 hPa West 3.7 km/h 3.7 km/h 39 % 0 mm
14:00 22.9 °C 7.9 °C 1017.5 hPa WNW 5.6 km/h 5.6 km/h 38 % 0 mm
14:05 22.8 °C 8.4 °C 1017.5 hPa NW 1.6 km/h 1.6 km/h 40 % 0 mm
14:10 22.7 °C 8.4 °C 1017.5 hPa SE 1.9 km/h 1.9 km/h 40 % 0 mm
14:15 22.9 °C 7.9 °C 1017.5 hPa NW 5.6 km/h 5.6 km/h 38 % 0 mm
14:20 22.9 °C 7.9 °C 1017.2 hPa WNW 1.9 km/h 1.9 km/h 38 % 0 mm
14:25 22.9 °C 8.2 °C 1017.2 hPa NE 5.6 km/h 5.6 km/h 39 % 0 mm
14:30 23.1 °C 8 °C 1017.2 hPa NW 5.6 km/h 5.6 km/h 38 % 0 mm
14:35 22.8 °C 6.9 °C 1017.2 hPa WNW 3.7 km/h 3.7 km/h 36 % 0 mm
14:40 22.8 °C 7.4 °C 1017.2 hPa Calm     37 % 0 mm
14:46 23 °C 6.3 °C 1017.2 hPa Calm     34 % 0 mm
14:51 23.3 °C 6.1 °C 1016.8 hPa South 1.9 km/h 1.9 km/h 33 % 0 mm
14:56 23.3 °C 6.2 °C 1016.8 hPa Calm     33 % 0 mm
15:01 23.2 °C 6.5 °C 1016.8 hPa WNW 1.9 km/h 1.9 km/h 34 % 0 mm
15:06 23.2 °C 6.8 °C 1016.8 hPa NW 5.6 km/h 5.6 km/h 35 % 0 mm
15:11 23.1 °C 5.9 °C 1016.5 hPa NW 1.9 km/h   33 % 0 mm
15:16 23.1 °C 5.1 °C 1016.5 hPa NW 3.7 km/h 3.7 km/h 31 % 0 mm
15:21 23.1 °C 5.5 °C 1016.5 hPa South 1.9 km/h 1.9 km/h 32 % 0 mm
15:26 23.1 °C 5.9 °C 1016.5 hPa NW 1.9 km/h 1.9 km/h 33 % 0 mm
15:31 23 °C 5.8 °C 1016.5 hPa Calm     33 % 0 mm
15:36 22.9 °C 6.2 °C 1016.5 hPa WNW 1.9 km/h 1.9 km/h 34 % 0 mm
15:41 22.9 °C 6.2 °C 1016.5 hPa NE 5.6 km/h 5.6 km/h 34 % 0 mm
15:46 23.1 °C 5.9 °C 1016.5 hPa WSW 3.7 km/h 3.7 km/h 33 % 0 mm
15:51 22.9 °C 5.8 °C 1016.5 hPa WNW 3.7 km/h 3.7 km/h 33 % 0 mm
15:56 22.8 °C 5.7 °C 1016.1 hPa NW 5.6 km/h 5.6 km/h 33 % 0 mm
16:01 22.9 °C 6.2 °C 1016.5 hPa NW 6.4 km/h 6.4 km/h 34 % 0 mm
16:06 22.8 °C 6.6 °C 1016.5 hPa NNW 3.7 km/h 3.7 km/h 35 % 0 mm
16:11 22.8 °C 6.5 °C 1016.1 hPa North 5.6 km/h 5.6 km/h 35 % 0 mm
16:16 22.8 °C 5.7 °C 1016.1 hPa NW 3.7 km/h 3.7 km/h 33 % 0 mm
16:21 22.8 °C 6.1 °C 1016.1 hPa WNW 1.9 km/h 1.9 km/h 34 % 0 mm
16:26 22.7 °C 6.4 °C 1016.1 hPa NW 5.6 km/h 5.6 km/h 35 % 0 mm
16:31 22.7 °C 6.4 °C 1016.1 hPa NW 3.7 km/h 3.7 km/h 35 % 0 mm
16:36 22.6 °C 6.4 °C 1016.1 hPa Calm     35 % 0 mm
16:41 22.6 °C 6.7 °C 1016.1 hPa NW 6.4 km/h 6.4 km/h 36 % 0 mm
16:46 22.4 °C 6.6 °C 1016.1 hPa NW 3.7 km/h 3.7 km/h 36 % 0 mm
16:51 22.3 °C 7.3 °C 1016.1 hPa North 6.4 km/h 6.4 km/h 38 % 0 mm
Park Place, Exeter, Tulare County, California, USA
Compliments of Weather Underground - 2.25 mb